createdAt,value
2022-12-08T00:01:46.782Z,64.60
2022-12-08T00:04:26.239Z,64.34
2022-12-08T00:07:16.595Z,63.49
2022-12-08T00:09:54.106Z,64.63
2022-12-08T00:12:39.065Z,63.28
2022-12-08T00:15:08.991Z,62.77
2022-12-08T00:17:40.704Z,62.84
2022-12-08T00:20:14.059Z,62.82
2022-12-08T00:22:49.434Z,63.18
2022-12-08T00:25:20.108Z,62.25
2022-12-08T00:27:51.963Z,61.70
2022-12-08T00:30:22.917Z,62.28
2022-12-08T00:33:05.321Z,62.81
2022-12-08T00:35:35.638Z,62.52
2022-12-08T00:38:09.496Z,62.08
2022-12-08T00:40:38.342Z,60.80
2022-12-08T00:43:11.572Z,61.51
2022-12-08T00:45:42.545Z,61.51
2022-12-08T00:48:11.359Z,61.03
2022-12-08T00:50:42.267Z,61.98
2022-12-08T00:53:16.065Z,61.75
2022-12-08T00:55:46.697Z,62.51
2022-12-08T00:58:21.978Z,62.00
2022-12-08T01:00:51.756Z,61.93
2022-12-08T01:03:34.098Z,62.64
2022-12-08T01:06:15.755Z,61.42
2022-12-08T01:08:56.760Z,62.09
2022-12-08T01:11:25.903Z,62.90
2022-12-08T01:14:00.150Z,62.65
2022-12-08T01:16:38.640Z,62.67
2022-12-08T01:19:07.950Z,63.37
2022-12-08T01:21:39.009Z,63.18
2022-12-08T01:24:16.399Z,63.83
2022-12-08T01:26:47.208Z,63.39
2022-12-08T01:29:32.264Z,63.91
2022-12-08T01:32:09.259Z,64.24
2022-12-08T01:34:42.009Z,65.09
2022-12-08T01:37:16.480Z,65.58
2022-12-08T01:39:44.613Z,65.64
2022-12-08T01:42:25.113Z,65.42
2022-12-08T01:45:03.787Z,65.65
2022-12-08T01:47:49.458Z,66.09
2022-12-08T01:50:27.409Z,65.64
2022-12-08T01:53:01.179Z,65.88
2022-12-08T01:55:35.210Z,65.49
2022-12-08T01:58:16.763Z,66.18
2022-12-08T02:00:52.711Z,65.97
2022-12-08T02:03:31.439Z,65.79
2022-12-08T02:06:12.614Z,65.60
2022-12-08T02:08:47.825Z,66.52
2022-12-08T02:11:20.362Z,66.22
2022-12-08T02:13:51.426Z,66.09
2022-12-08T02:16:40.896Z,65.83
2022-12-08T02:19:31.654Z,65.96
2022-12-08T02:22:02.779Z,65.27
2022-12-08T02:24:41.370Z,65.49
2022-12-08T02:27:22.965Z,65.61
2022-12-08T02:30:16.636Z,65.54
2022-12-08T02:33:30.879Z,65.08
2022-12-08T02:36:13.375Z,65.23
2022-12-08T02:38:51.234Z,64.77
2022-12-08T02:41:28.951Z,64.31
2022-12-08T02:44:04.102Z,65.00
2022-12-08T02:46:45.237Z,65.02
2022-12-08T02:49:19.433Z,65.36
2022-12-08T02:51:50.026Z,65.42
2022-12-08T02:54:22.545Z,64.53
2022-12-08T02:57:11.951Z,65.36
2022-12-08T02:59:58.969Z,65.26
2022-12-08T03:02:45.724Z,64.86
2022-12-08T03:05:33.811Z,65.13
2022-12-08T03:08:08.065Z,64.92
2022-12-08T03:10:41.563Z,65.34
2022-12-08T03:13:16.855Z,65.15
2022-12-08T03:15:53.714Z,64.85
2022-12-08T03:18:36.772Z,66.05
2022-12-08T03:21:05.942Z,66.14
2022-12-08T03:23:41.205Z,66.84
2022-12-08T03:26:15.833Z,67.28
2022-12-08T03:28:53.017Z,67.42
2022-12-08T03:31:27.572Z,68.84
2022-12-08T03:33:58.111Z,69.30
2022-12-08T03:36:36.579Z,69.97
2022-12-08T03:39:12.589Z,71.07
2022-12-08T03:41:40.610Z,71.17
2022-12-08T03:44:08.837Z,71.26
2022-12-08T03:46:36.830Z,71.62
2022-12-08T03:49:05.025Z,72.58
2022-12-08T03:51:33.016Z,72.24
2022-12-08T03:54:01.067Z,72.22
2022-12-08T03:56:32.954Z,71.97
2022-12-08T03:59:01.101Z,71.94
2022-12-08T04:01:29.240Z,72.09
2022-12-08T04:03:57.337Z,72.51
2022-12-08T04:06:25.850Z,72.33
2022-12-08T04:08:53.954Z,72.69
2022-12-08T04:11:22.499Z,72.25
2022-12-08T04:13:51.917Z,72.92
2022-12-08T04:16:22.112Z,73.00
2022-12-08T04:18:50.299Z,72.61
2022-12-08T04:21:18.396Z,72.79
2022-12-08T04:23:47.128Z,73.06
2022-12-08T04:26:15.638Z,73.03
2022-12-08T04:28:43.686Z,72.58
2022-12-08T04:31:13.164Z,72.83
2022-12-08T04:33:41.339Z,72.04
2022-12-08T04:36:10.500Z,71.95
2022-12-08T04:38:38.490Z,72.26
2022-12-08T04:41:06.533Z,71.57
2022-12-08T04:43:34.545Z,72.29
2022-12-08T04:46:02.567Z,72.59
2022-12-08T04:48:31.978Z,72.56
2022-12-08T04:50:59.964Z,72.60
2022-12-08T04:53:27.947Z,72.44
2022-12-08T04:55:56.169Z,72.48
2022-12-08T04:58:24.138Z,72.07
2022-12-08T05:00:52.297Z,72.85
2022-12-08T05:03:26.720Z,72.97
2022-12-08T05:05:57.794Z,73.13
2022-12-08T05:08:27.242Z,72.82
2022-12-08T05:11:06.829Z,74.01
2022-12-08T05:13:36.005Z,73.81
2022-12-08T05:16:09.400Z,73.85
2022-12-08T05:18:46.734Z,75.03
2022-12-08T05:21:29.292Z,74.88
2022-12-08T05:24:03.899Z,74.69
2022-12-08T05:26:35.099Z,74.56
2022-12-08T05:29:06.437Z,74.32
2022-12-08T05:31:44.389Z,75.25
2022-12-08T05:34:15.304Z,75.11
2022-12-08T05:36:59.449Z,75.33
2022-12-08T05:39:27.774Z,75.05
2022-12-08T05:41:56.961Z,75.81
2022-12-08T05:44:28.219Z,75.34
2022-12-08T05:46:57.592Z,75.00
2022-12-08T05:49:26.261Z,75.15
2022-12-08T05:52:03.722Z,75.04
2022-12-08T05:54:47.782Z,74.88
2022-12-08T05:57:25.607Z,75.44
2022-12-08T06:00:02.296Z,75.67
2022-12-08T06:02:43.811Z,76.05
2022-12-08T06:05:12.677Z,76.27
2022-12-08T06:07:42.849Z,75.71
2022-12-08T06:10:15.100Z,76.38
2022-12-08T06:12:45.997Z,77.27
2022-12-08T06:15:21.887Z,77.02
2022-12-08T06:17:52.529Z,76.86
2022-12-08T06:20:23.365Z,76.78
2022-12-08T06:23:05.812Z,77.05
2022-12-08T06:25:37.724Z,77.31
2022-12-08T06:28:07.511Z,77.75
2022-12-08T06:30:39.044Z,76.34
2022-12-08T06:33:07.542Z,76.98
2022-12-08T06:35:36.556Z,77.59
2022-12-08T06:38:19.476Z,76.95
2022-12-08T06:40:57.944Z,78.38
2022-12-08T06:43:29.775Z,78.68
2022-12-08T06:46:11.257Z,79.14
2022-12-08T06:48:45.080Z,78.48
2022-12-08T06:51:15.941Z,78.54
2022-12-08T06:53:48.335Z,79.78
2022-12-08T06:56:28.569Z,80.30
2022-12-08T06:58:56.856Z,79.95
2022-12-08T07:01:39.524Z,80.62
2022-12-08T07:04:14.935Z,80.89
2022-12-08T07:06:52.633Z,80.78
2022-12-08T07:09:25.139Z,80.43
2022-12-08T07:11:54.088Z,80.87
2022-12-08T07:14:25.762Z,80.51
2022-12-08T07:16:56.533Z,81.31
2022-12-08T07:19:30.565Z,82.30
2022-12-08T07:21:59.000Z,81.74
2022-12-08T07:24:37.231Z,81.67
2022-12-08T07:27:19.443Z,82.45
2022-12-08T07:29:50.978Z,83.10
2022-12-08T07:32:27.661Z,83.14
2022-12-08T07:34:56.176Z,83.09
2022-12-08T07:37:27.081Z,83.65
2022-12-08T07:39:59.252Z,83.91
2022-12-08T07:42:35.673Z,84.32
2022-12-08T07:45:05.493Z,84.13
2022-12-08T07:47:42.493Z,84.29
2022-12-08T07:50:13.161Z,83.82
2022-12-08T07:52:45.025Z,84.40
2022-12-08T07:55:22.315Z,85.80
2022-12-08T07:58:12.109Z,85.22
2022-12-08T08:00:55.957Z,84.90
2022-12-08T08:03:24.870Z,84.88
2022-12-08T08:05:59.861Z,85.17
2022-12-08T08:08:33.468Z,85.62
2022-12-08T08:11:15.795Z,85.21
2022-12-08T08:13:50.949Z,85.31
2022-12-08T08:16:26.009Z,85.55
2022-12-08T08:19:03.215Z,86.01
2022-12-08T08:21:45.486Z,86.02
2022-12-08T08:24:17.474Z,88.68
2022-12-08T08:26:50.483Z,88.27
2022-12-08T08:29:19.073Z,87.76
2022-12-08T08:31:58.380Z,87.05
2022-12-08T08:34:28.692Z,87.80
2022-12-08T08:37:00.511Z,89.00
2022-12-08T08:39:31.953Z,89.13
2022-12-08T08:42:12.776Z,88.59
2022-12-08T08:44:44.925Z,88.42
2022-12-08T08:47:17.543Z,88.23
2022-12-08T08:49:48.914Z,89.29
2022-12-08T08:52:19.783Z,89.19
2022-12-08T08:54:51.639Z,89.29
2022-12-08T08:57:28.339Z,88.26
2022-12-08T09:00:04.146Z,88.43
2022-12-08T09:02:36.074Z,90.18
2022-12-08T09:05:04.885Z,89.63
2022-12-08T09:07:34.055Z,89.56
2022-12-08T09:10:04.203Z,89.62
2022-12-08T09:12:45.871Z,90.03
2022-12-08T09:15:16.389Z,89.98
2022-12-08T09:17:59.345Z,89.79
2022-12-08T09:20:31.148Z,89.79
2022-12-08T09:23:35.375Z,89.76
2022-12-08T09:26:13.939Z,89.77
2022-12-08T09:28:46.456Z,89.42
2022-12-08T09:31:25.966Z,88.70
2022-12-08T09:33:58.816Z,87.02
2022-12-08T09:36:34.122Z,87.93
2022-12-08T09:39:11.232Z,87.70
2022-12-08T09:41:53.096Z,87.74
2022-12-08T09:45:06.515Z,87.20
2022-12-08T09:48:08.929Z,86.72
2022-12-08T09:50:45.778Z,85.40
2022-12-08T09:53:22.718Z,84.54
2022-12-08T09:55:56.906Z,84.58
2022-12-08T09:58:35.782Z,84.75
2022-12-08T10:01:06.469Z,84.23
2022-12-08T10:03:43.688Z,84.60
2022-12-08T10:06:26.899Z,84.41
2022-12-08T10:09:12.331Z,83.93
2022-12-08T10:11:51.008Z,84.35
2022-12-08T10:14:28.051Z,84.22
2022-12-08T10:17:09.423Z,83.40
2022-12-08T10:19:39.741Z,82.74
2022-12-08T10:22:22.879Z,84.12
2022-12-08T10:25:00.353Z,84.76
2022-12-08T10:27:36.799Z,84.84
2022-12-08T10:30:20.004Z,84.80
2022-12-08T10:32:52.328Z,84.99
2022-12-08T10:35:28.526Z,83.91
2022-12-08T10:38:00.721Z,85.08
2022-12-08T10:40:36.878Z,85.08
2022-12-08T10:43:20.866Z,84.67
2022-12-08T10:45:54.786Z,83.43
2022-12-08T10:48:27.857Z,83.75
2022-12-08T10:50:58.028Z,84.75
2022-12-08T10:53:29.513Z,84.64
2022-12-08T10:56:08.543Z,84.02
2022-12-08T10:58:40.699Z,83.86
2022-12-08T11:01:13.450Z,84.21
2022-12-08T11:03:46.853Z,83.80
2022-12-08T11:06:17.707Z,84.50
2022-12-08T11:08:49.907Z,83.80
2022-12-08T11:11:18.359Z,83.76
2022-12-08T11:13:49.485Z,83.71
2022-12-08T11:16:18.575Z,82.69
2022-12-08T11:18:49.998Z,82.94
2022-12-08T11:21:20.204Z,84.10
2022-12-08T11:23:49.989Z,84.70
2022-12-08T11:26:22.386Z,83.55
2022-12-08T11:28:50.675Z,84.42
2022-12-08T11:31:29.067Z,85.14
2022-12-08T11:33:58.745Z,84.57
2022-12-08T11:36:28.481Z,84.11
2022-12-08T11:38:58.679Z,86.03
2022-12-08T11:41:28.827Z,85.85
2022-12-08T11:44:02.766Z,86.18
2022-12-08T11:46:34.493Z,86.94
2022-12-08T11:49:06.903Z,86.17
2022-12-08T11:51:38.025Z,86.06
2022-12-08T11:54:18.076Z,83.89
2022-12-08T11:56:48.389Z,83.47
2022-12-08T11:59:25.481Z,83.57
2022-12-08T12:01:53.754Z,84.08
2022-12-08T12:04:27.918Z,82.64
2022-12-08T12:07:14.354Z,82.20
2022-12-08T12:09:53.034Z,80.98
2022-12-08T12:12:36.407Z,80.17
2022-12-08T12:15:32.864Z,82.19
2022-12-08T12:18:03.156Z,81.69
2022-12-08T12:20:35.122Z,82.61
2022-12-08T12:23:06.517Z,83.97
2022-12-08T12:25:36.088Z,84.87
2022-12-08T12:28:14.208Z,85.70
2022-12-08T12:31:04.590Z,85.31
2022-12-08T12:33:35.970Z,86.37
2022-12-08T12:36:11.549Z,85.69
2022-12-08T12:39:09.970Z,86.12
2022-12-08T12:41:49.905Z,86.22
2022-12-08T12:44:44.686Z,87.48
2022-12-08T12:47:24.043Z,86.81
2022-12-08T12:50:12.805Z,87.38
2022-12-08T12:52:44.227Z,87.65
2022-12-08T12:55:55.839Z,87.72
2022-12-08T12:58:44.286Z,88.11
2022-12-08T13:01:55.751Z,88.85
2022-12-08T13:04:32.734Z,88.92
2022-12-08T13:07:15.317Z,89.71
2022-12-08T13:09:58.586Z,88.87
2022-12-08T13:12:28.286Z,88.88
2022-12-08T13:15:02.729Z,87.77
2022-12-08T13:17:41.823Z,88.49
2022-12-08T13:20:24.439Z,88.92
2022-12-08T13:23:30.113Z,86.93
2022-12-08T13:26:19.227Z,87.35
2022-12-08T13:29:19.910Z,88.92
2022-12-08T13:32:07.692Z,88.61
2022-12-08T13:34:50.042Z,88.95
2022-12-08T13:37:27.946Z,88.96
2022-12-08T13:40:10.069Z,89.82
2022-12-08T13:42:55.517Z,90.38
2022-12-08T13:46:04.365Z,89.57
2022-12-08T13:48:42.310Z,90.85
2022-12-08T13:57:12.225Z,90.82
2022-12-08T13:59:51.490Z,91.15
2022-12-08T14:02:34.761Z,92.17
2022-12-08T14:05:21.704Z,91.21
2022-12-08T14:07:57.286Z,90.41
2022-12-08T14:10:33.070Z,91.58
2022-12-08T14:13:08.902Z,91.92
2022-12-08T14:15:41.744Z,91.88
2022-12-08T14:18:36.210Z,91.54
2022-12-08T14:21:22.560Z,90.97
2022-12-08T14:23:59.207Z,92.38
2022-12-08T14:26:28.400Z,91.85
2022-12-08T14:29:00.192Z,91.38
2022-12-08T14:31:30.578Z,91.65
2022-12-08T14:34:00.500Z,91.72
2022-12-08T14:36:33.708Z,92.25
2022-12-08T14:39:08.057Z,92.39
2022-12-08T14:41:40.613Z,92.73
2022-12-08T14:44:25.556Z,93.71
2022-12-08T14:47:10.903Z,93.50
2022-12-08T14:49:41.925Z,93.74
2022-12-08T14:52:15.369Z,92.94
2022-12-08T14:54:56.142Z,93.32
2022-12-08T14:57:34.900Z,92.67
2022-12-08T15:00:18.405Z,94.46
2022-12-08T15:02:54.991Z,94.30
2022-12-08T15:05:31.303Z,93.74
2022-12-08T15:08:04.278Z,93.68
2022-12-08T15:10:41.649Z,93.92
2022-12-08T15:13:24.037Z,93.25
2022-12-08T15:15:55.849Z,93.72
2022-12-08T15:18:36.784Z,93.25
2022-12-08T15:21:11.115Z,93.49
2022-12-08T15:23:45.796Z,93.43
2022-12-08T15:26:23.120Z,95.26
2022-12-08T15:29:05.280Z,94.83
2022-12-08T15:31:44.151Z,94.79
2022-12-08T15:34:17.783Z,94.14
2022-12-08T15:36:52.195Z,95.08
2022-12-08T15:39:36.861Z,95.42
2022-12-08T15:42:10.298Z,94.95
2022-12-08T15:44:41.587Z,95.35
2022-12-08T15:47:17.870Z,94.92
2022-12-08T15:49:57.090Z,95.08
2022-12-08T15:52:35.929Z,95.09
2022-12-08T15:55:04.473Z,95.50
2022-12-08T15:58:30.762Z,95.39
2022-12-08T16:09:28.304Z,96.08
2022-12-08T16:12:15.297Z,96.20
2022-12-08T16:17:53.637Z,95.29
2022-12-08T16:20:32.749Z,95.78
2022-12-08T16:23:41.548Z,95.96
2022-12-08T16:26:35.526Z,95.98
2022-12-08T16:29:07.046Z,96.57
2022-12-08T16:31:38.064Z,96.22
2022-12-08T16:34:15.841Z,96.70
2022-12-08T16:36:47.877Z,95.95
2022-12-08T16:39:27.778Z,95.98
2022-12-08T16:42:14.662Z,95.93
2022-12-08T16:44:46.636Z,96.02
2022-12-08T16:47:28.861Z,96.19
2022-12-08T16:49:59.656Z,95.92
2022-12-08T16:52:44.420Z,95.68
2022-12-08T16:55:19.592Z,95.48
2022-12-08T16:57:50.754Z,95.84
2022-12-08T17:00:22.521Z,96.61
2022-12-08T17:02:52.268Z,96.95
2022-12-08T17:05:23.005Z,96.92
2022-12-08T17:08:02.796Z,96.76
2022-12-08T17:10:43.566Z,97.05
2022-12-08T17:13:29.435Z,97.30
2022-12-08T17:15:58.381Z,98.98
2022-12-08T17:18:27.805Z,98.07
2022-12-08T17:21:12.384Z,97.86
2022-12-08T17:23:51.298Z,97.67
2022-12-08T17:26:36.107Z,98.17
2022-12-08T17:29:16.888Z,98.29
2022-12-08T17:31:45.730Z,98.66
2022-12-08T17:34:18.226Z,99.74
2022-12-08T17:36:56.489Z,99.80
2022-12-08T17:39:28.848Z,99.37
2022-12-08T17:42:08.364Z,99.15
2022-12-08T17:44:58.301Z,100.00
2022-12-08T17:47:39.957Z,99.60
2022-12-08T17:50:27.988Z,98.46
2022-12-08T17:52:58.521Z,99.49
2022-12-08T17:55:33.161Z,99.03
2022-12-08T17:58:07.734Z,99.29
2022-12-08T18:00:36.847Z,98.74
2022-12-08T18:03:19.762Z,99.31
2022-12-08T18:06:05.573Z,98.58
2022-12-08T18:08:38.271Z,100.00
2022-12-08T18:11:12.632Z,99.55
2022-12-08T18:13:45.866Z,99.45
2022-12-08T18:16:27.747Z,100.00
2022-12-08T18:18:58.387Z,100.00
2022-12-08T18:21:28.716Z,100.00
2022-12-08T18:24:09.855Z,100.00
2022-12-08T18:26:44.964Z,100.00
2022-12-08T18:29:23.359Z,100.00
2022-12-08T18:32:03.791Z,100.00
2022-12-08T18:34:38.825Z,100.00
2022-12-08T18:37:14.042Z,100.00
2022-12-08T18:39:49.735Z,100.00
2022-12-08T18:42:40.704Z,100.00
2022-12-08T18:45:36.275Z,100.00
2022-12-08T18:48:20.840Z,100.00
2022-12-08T18:50:52.423Z,100.00
2022-12-08T18:53:31.208Z,100.00
2022-12-08T18:56:04.493Z,100.00
2022-12-08T18:58:41.763Z,100.00
2022-12-08T19:01:21.766Z,100.00
2022-12-08T19:04:19.993Z,100.00
2022-12-08T19:06:50.847Z,100.00
2022-12-08T19:09:30.557Z,100.00
2022-12-08T19:12:06.293Z,100.00
2022-12-08T19:14:45.872Z,100.00
2022-12-08T19:17:33.181Z,100.00
2022-12-08T19:20:11.980Z,100.00
2022-12-08T19:22:49.617Z,100.00
2022-12-08T19:25:25.967Z,100.00
2022-12-08T19:28:03.130Z,100.00
2022-12-08T19:30:39.686Z,100.00
2022-12-08T19:36:23.188Z,99.80
2022-12-08T19:39:21.209Z,100.00
2022-12-08T19:42:12.850Z,100.00
2022-12-08T19:45:00.849Z,100.00
2022-12-08T19:47:46.651Z,99.97
2022-12-08T19:50:40.813Z,100.00
2022-12-08T19:53:19.111Z,100.00
2022-12-08T19:55:58.808Z,100.00
2022-12-08T19:58:29.762Z,100.00
2022-12-08T20:01:05.538Z,100.00
2022-12-08T20:03:36.926Z,100.00
2022-12-08T20:06:20.802Z,100.00
2022-12-08T20:09:04.832Z,100.00
2022-12-08T20:11:54.633Z,100.00
2022-12-08T20:14:30.772Z,100.00
2022-12-08T20:17:04.210Z,100.00
2022-12-08T20:19:38.912Z,100.00
2022-12-08T20:22:30.158Z,100.00
2022-12-08T20:25:06.553Z,100.00
2022-12-08T20:27:51.117Z,100.00
2022-12-08T20:30:25.341Z,100.00
2022-12-08T20:33:08.578Z,100.00
2022-12-08T20:35:41.143Z,100.00
2022-12-08T20:38:21.593Z,100.00
2022-12-08T20:40:51.155Z,100.00
2022-12-08T20:43:20.836Z,100.00
2022-12-08T20:45:50.319Z,100.00
2022-12-08T20:48:19.686Z,100.00
2022-12-08T20:50:52.322Z,100.00
2022-12-08T20:53:23.118Z,100.00
2022-12-08T20:55:55.874Z,100.00
2022-12-08T20:58:25.065Z,100.00
2022-12-08T21:00:54.126Z,100.00
2022-12-08T21:03:23.620Z,100.00
2022-12-08T21:05:53.556Z,100.00
2022-12-08T21:08:26.432Z,100.00
2022-12-08T21:10:57.953Z,100.00
2022-12-08T21:13:26.218Z,100.00
2022-12-08T21:15:54.957Z,100.00
2022-12-08T21:18:24.431Z,100.00
2022-12-08T21:20:54.095Z,100.00
2022-12-08T21:23:23.577Z,100.00
2022-12-08T21:25:52.048Z,100.00
2022-12-08T21:28:20.309Z,100.00
2022-12-08T21:30:48.429Z,100.00
2022-12-08T21:33:17.857Z,100.00
2022-12-08T21:35:46.305Z,100.00
2022-12-08T21:38:14.622Z,100.00
2022-12-08T21:40:44.249Z,100.00
2022-12-08T21:43:13.707Z,100.00
2022-12-08T21:45:42.044Z,100.00
2022-12-08T21:48:11.881Z,100.00
2022-12-08T21:50:40.431Z,100.00
2022-12-08T21:53:08.754Z,100.00
2022-12-08T21:55:37.238Z,100.00
2022-12-08T21:58:07.247Z,100.00
2022-12-08T22:00:35.620Z,100.00
2022-12-08T22:03:04.168Z,100.00
2022-12-08T22:05:32.543Z,100.00
2022-12-08T22:08:00.792Z,100.00
2022-12-08T22:10:29.270Z,100.00
2022-12-08T22:12:57.523Z,100.00
2022-12-08T22:15:29.808Z,100.00
2022-12-08T22:17:58.147Z,100.00
2022-12-08T22:20:26.419Z,100.00
2022-12-08T22:22:54.677Z,100.00
2022-12-08T22:25:23.018Z,100.00
2022-12-08T22:27:51.285Z,100.00
2022-12-08T22:30:19.583Z,100.00
2022-12-08T22:32:49.196Z,100.00
2022-12-08T22:35:17.561Z,100.00
2022-12-08T22:37:49.221Z,100.00
2022-12-08T22:40:17.759Z,100.00
2022-12-08T22:42:46.211Z,100.00
2022-12-08T22:45:14.683Z,100.00
2022-12-08T22:47:42.971Z,100.00
2022-12-08T22:50:13.100Z,100.00
2022-12-08T22:52:41.476Z,100.00
2022-12-08T22:55:10.228Z,100.00
2022-12-08T22:57:38.768Z,100.00
2022-12-08T23:00:11.938Z,100.00
2022-12-08T23:02:40.447Z,100.00
2022-12-08T23:05:09.468Z,100.00
2022-12-08T23:07:40.296Z,100.00
2022-12-08T23:10:10.764Z,100.00
2022-12-08T23:12:39.265Z,100.00
2022-12-08T23:15:08.755Z,100.00
2022-12-08T23:17:37.172Z,100.00
2022-12-08T23:20:06.966Z,100.00
2022-12-08T23:22:35.280Z,100.00
2022-12-08T23:25:07.757Z,100.00
2022-12-08T23:27:39.608Z,100.00
2022-12-08T23:30:10.227Z,100.00
2022-12-08T23:32:42.281Z,100.00
2022-12-08T23:35:12.840Z,100.00
2022-12-08T23:37:42.412Z,100.00
2022-12-08T23:40:16.318Z,100.00
2022-12-08T23:42:47.474Z,100.00
2022-12-08T23:45:19.998Z,100.00
2022-12-08T23:47:48.502Z,100.00
2022-12-08T23:50:28.550Z,100.00
2022-12-08T23:53:01.161Z,100.00
2022-12-08T23:55:36.340Z,100.00
2022-12-08T23:58:07.480Z,100.00
